sensor_id;sensor_type;location;lat;lon;timestamp;pressure;altitude;pressure_sealevel;temperature;humidity
56831;BME280;42713;42.676;23.352;2023-07-09T00:02:18;95175.59;;;19.92;50.81
56831;BME280;42713;42.676;23.352;2023-07-09T00:04:44;95171.88;;;19.93;51.15
56831;BME280;42713;42.676;23.352;2023-07-09T00:07:20;95174.53;;;19.93;50.82
56831;BME280;42713;42.676;23.352;2023-07-09T00:09:47;95171.38;;;19.90;50.90
56831;BME280;42713;42.676;23.352;2023-07-09T00:12:14;95178.38;;;19.81;51.28
56831;BME280;42713;42.676;23.352;2023-07-09T00:14:40;95162.72;;;19.80;51.41
56831;BME280;42713;42.676;23.352;2023-07-09T00:17:19;95166.19;;;19.80;51.44
56831;BME280;42713;42.676;23.352;2023-07-09T00:19:46;95160.28;;;19.83;51.48
56831;BME280;42713;42.676;23.352;2023-07-09T00:22:17;95173.59;;;19.83;51.33
56831;BME280;42713;42.676;23.352;2023-07-09T00:24:44;95167.75;;;19.81;51.11
56831;BME280;42713;42.676;23.352;2023-07-09T00:27:11;95170.22;;;19.78;51.16
56831;BME280;42713;42.676;23.352;2023-07-09T00:29:38;95167.63;;;19.72;51.68
56831;BME280;42713;42.676;23.352;2023-07-09T00:32:08;95162.09;;;19.69;51.19
56831;BME280;42713;42.676;23.352;2023-07-09T00:34:35;95161.59;;;19.67;51.32
56831;BME280;42713;42.676;23.352;2023-07-09T00:37:02;95174.38;;;19.65;51.33
56831;BME280;42713;42.676;23.352;2023-07-09T00:39:28;95166.91;;;19.67;51.34
56831;BME280;42713;42.676;23.352;2023-07-09T00:41:53;95163.25;;;19.63;51.20
56831;BME280;42713;42.676;23.352;2023-07-09T00:49:13;95155.34;;;19.57;51.25
56831;BME280;42713;42.676;23.352;2023-07-09T00:51:45;95155.66;;;19.56;51.24
56831;BME280;42713;42.676;23.352;2023-07-09T00:54:23;95153.72;;;19.62;51.03
56831;BME280;42713;42.676;23.352;2023-07-09T00:56:57;95145.44;;;19.63;50.75
56831;BME280;42713;42.676;23.352;2023-07-09T00:59:28;95158.41;;;19.65;51.41
56831;BME280;42713;42.676;23.352;2023-07-09T01:01:55;95154.47;;;19.62;51.29
56831;BME280;42713;42.676;23.352;2023-07-09T01:04:21;95152.47;;;19.54;51.46
56831;BME280;42713;42.676;23.352;2023-07-09T01:06:53;95146.09;;;19.55;51.22
56831;BME280;42713;42.676;23.352;2023-07-09T01:09:20;95157.59;;;19.50;51.43
56831;BME280;42713;42.676;23.352;2023-07-09T01:11:46;95147.97;;;19.54;51.66
56831;BME280;42713;42.676;23.352;2023-07-09T01:14:14;95151.19;;;19.51;51.24
56831;BME280;42713;42.676;23.352;2023-07-09T01:16:52;95150.91;;;19.53;51.40
56831;BME280;42713;42.676;23.352;2023-07-09T01:19:27;95141.66;;;19.50;51.41
56831;BME280;42713;42.676;23.352;2023-07-09T01:21:58;95151.56;;;19.44;51.15
56831;BME280;42713;42.676;23.352;2023-07-09T01:27:12;95141.84;;;19.54;51.51
56831;BME280;42713;42.676;23.352;2023-07-09T01:29:37;95140.78;;;19.55;51.40
56831;BME280;42713;42.676;23.352;2023-07-09T01:32:03;95135.97;;;19.57;51.24
56831;BME280;42713;42.676;23.352;2023-07-09T01:34:32;95141.78;;;19.59;51.26
56831;BME280;42713;42.676;23.352;2023-07-09T01:36:58;95142.06;;;19.57;51.27
56831;BME280;42713;42.676;23.352;2023-07-09T01:39:25;95146.75;;;19.47;51.05
56831;BME280;42713;42.676;23.352;2023-07-09T01:41:51;95139.84;;;19.46;51.37
56831;BME280;42713;42.676;23.352;2023-07-09T01:44:16;95138.38;;;19.39;51.50
56831;BME280;42713;42.676;23.352;2023-07-09T01:46:42;95149.47;;;19.41;51.24
56831;BME280;42713;42.676;23.352;2023-07-09T01:49:08;95150.06;;;19.38;51.57
56831;BME280;42713;42.676;23.352;2023-07-09T01:51:34;95155.38;;;19.38;51.66
56831;BME280;42713;42.676;23.352;2023-07-09T01:54:02;95155.22;;;19.29;51.62
56831;BME280;42713;42.676;23.352;2023-07-09T01:56:27;95160.63;;;19.24;52.26
56831;BME280;42713;42.676;23.352;2023-07-09T01:58:55;95162.75;;;19.22;52.45
56831;BME280;42713;42.676;23.352;2023-07-09T02:01:27;95164.59;;;19.22;52.04
56831;BME280;42713;42.676;23.352;2023-07-09T02:03:53;95164.03;;;19.25;52.42
56831;BME280;42713;42.676;23.352;2023-07-09T02:06:19;95162.75;;;19.22;52.57
56831;BME280;42713;42.676;23.352;2023-07-09T02:08:45;95157.00;;;19.15;52.37
56831;BME280;42713;42.676;23.352;2023-07-09T02:11:10;95163.09;;;19.16;52.45
56831;BME280;42713;42.676;23.352;2023-07-09T02:13:36;95155.19;;;19.10;52.36
56831;BME280;42713;42.676;23.352;2023-07-09T02:16:01;95160.50;;;19.10;52.59
56831;BME280;42713;42.676;23.352;2023-07-09T02:18:28;95161.00;;;19.12;52.44
56831;BME280;42713;42.676;23.352;2023-07-09T02:20:54;95157.63;;;19.07;52.68
56831;BME280;42713;42.676;23.352;2023-07-09T02:23:19;95160.28;;;19.07;53.13
56831;BME280;42713;42.676;23.352;2023-07-09T02:25:45;95163.53;;;19.04;54.46
56831;BME280;42713;42.676;23.352;2023-07-09T02:28:10;95164.66;;;18.97;54.66
56831;BME280;42713;42.676;23.352;2023-07-09T02:30:36;95170.56;;;18.89;55.38
56831;BME280;42713;42.676;23.352;2023-07-09T02:33:01;95170.97;;;18.77;55.91
56831;BME280;42713;42.676;23.352;2023-07-09T02:35:27;95178.41;;;18.75;55.89
56831;BME280;42713;42.676;23.352;2023-07-09T02:37:52;95176.78;;;18.79;56.94
56831;BME280;42713;42.676;23.352;2023-07-09T02:40:18;95180.75;;;18.82;57.67
56831;BME280;42713;42.676;23.352;2023-07-09T02:42:43;95184.53;;;18.76;57.98
56831;BME280;42713;42.676;23.352;2023-07-09T02:45:09;95185.34;;;18.71;58.44
56831;BME280;42713;42.676;23.352;2023-07-09T02:47:35;95189.38;;;18.69;59.03
56831;BME280;42713;42.676;23.352;2023-07-09T02:50:00;95190.00;;;18.60;59.43
56831;BME280;42713;42.676;23.352;2023-07-09T02:52:26;95191.91;;;18.55;59.78
56831;BME280;42713;42.676;23.352;2023-07-09T02:54:52;95194.31;;;18.51;60.29
56831;BME280;42713;42.676;23.352;2023-07-09T02:57:17;95190.94;;;18.45;60.72
56831;BME280;42713;42.676;23.352;2023-07-09T02:59:43;95197.63;;;18.38;61.44
56831;BME280;42713;42.676;23.352;2023-07-09T03:02:09;95208.00;;;18.34;61.96
56831;BME280;42713;42.676;23.352;2023-07-09T03:04:34;95209.38;;;18.31;62.04
56831;BME280;42713;42.676;23.352;2023-07-09T03:07:00;95208.31;;;18.27;62.38
56831;BME280;42713;42.676;23.352;2023-07-09T03:09:25;95212.09;;;18.21;62.91
56831;BME280;42713;42.676;23.352;2023-07-09T03:11:52;95214.28;;;18.14;62.94
56831;BME280;42713;42.676;23.352;2023-07-09T03:14:17;95212.69;;;18.13;63.21
56831;BME280;42713;42.676;23.352;2023-07-09T03:16:45;95210.06;;;18.08;63.91
56831;BME280;42713;42.676;23.352;2023-07-09T03:19:10;95210.66;;;18.04;63.86
56831;BME280;42713;42.676;23.352;2023-07-09T03:21:36;95206.44;;;17.98;63.83
56831;BME280;42713;42.676;23.352;2023-07-09T03:24:02;95210.41;;;17.96;64.08
56831;BME280;42713;42.676;23.352;2023-07-09T03:26:27;95211.25;;;17.91;64.86
56831;BME280;42713;42.676;23.352;2023-07-09T03:28:53;95208.34;;;17.93;64.71
56831;BME280;42713;42.676;23.352;2023-07-09T03:31:20;95209.66;;;17.90;64.29
56831;BME280;42713;42.676;23.352;2023-07-09T03:33:47;95216.53;;;17.91;64.76
56831;BME280;42713;42.676;23.352;2023-07-09T03:36:13;95211.00;;;17.87;65.07
56831;BME280;42713;42.676;23.352;2023-07-09T03:38:39;95215.53;;;17.87;65.01
56831;BME280;42713;42.676;23.352;2023-07-09T03:41:04;95211.78;;;17.88;65.40
56831;BME280;42713;42.676;23.352;2023-07-09T03:43:31;95210.22;;;17.87;65.10
56831;BME280;42713;42.676;23.352;2023-07-09T03:45:56;95212.06;;;17.86;64.84
56831;BME280;42713;42.676;23.352;2023-07-09T03:48:22;95220.03;;;17.86;64.11
56831;BME280;42713;42.676;23.352;2023-07-09T03:50:48;95218.19;;;17.87;64.11
56831;BME280;42713;42.676;23.352;2023-07-09T03:53:14;95213.66;;;17.87;63.56
56831;BME280;42713;42.676;23.352;2023-07-09T03:55:40;95212.91;;;17.82;63.22
56831;BME280;42713;42.676;23.352;2023-07-09T03:58:06;95216.31;;;17.87;63.60
56831;BME280;42713;42.676;23.352;2023-07-09T04:00:32;95220.78;;;17.92;63.63
56831;BME280;42713;42.676;23.352;2023-07-09T04:02:58;95219.97;;;17.97;62.96
56831;BME280;42713;42.676;23.352;2023-07-09T04:05:25;95218.91;;;17.98;62.22
56831;BME280;42713;42.676;23.352;2023-07-09T04:07:50;95226.09;;;17.97;62.63
56831;BME280;42713;42.676;23.352;2023-07-09T04:10:17;95229.53;;;17.93;63.19
56831;BME280;42713;42.676;23.352;2023-07-09T04:12:42;95230.59;;;17.97;63.33
56831;BME280;42713;42.676;23.352;2023-07-09T04:15:08;95230.31;;;17.93;63.67
56831;BME280;42713;42.676;23.352;2023-07-09T04:17:35;95234.84;;;17.93;63.71
56831;BME280;42713;42.676;23.352;2023-07-09T04:20:02;95244.34;;;17.94;63.37
56831;BME280;42713;42.676;23.352;2023-07-09T04:22:31;95243.28;;;18.00;63.27
56831;BME280;42713;42.676;23.352;2023-07-09T04:24:57;95246.72;;;18.00;63.34
56831;BME280;42713;42.676;23.352;2023-07-09T04:27:23;95237.16;;;18.04;63.65
56831;BME280;42713;42.676;23.352;2023-07-09T04:29:52;95239.75;;;18.10;64.70
56831;BME280;42713;42.676;23.352;2023-07-09T04:32:18;95244.75;;;18.16;64.86
56831;BME280;42713;42.676;23.352;2023-07-09T04:34:44;95243.59;;;18.28;65.86
56831;BME280;42713;42.676;23.352;2023-07-09T04:37:10;95252.53;;;18.37;66.52
56831;BME280;42713;42.676;23.352;2023-07-09T04:39:37;95255.66;;;18.44;65.61
56831;BME280;42713;42.676;23.352;2023-07-09T04:42:04;95253.53;;;18.46;65.78
56831;BME280;42713;42.676;23.352;2023-07-09T04:44:30;95261.19;;;18.48;66.10
56831;BME280;42713;42.676;23.352;2023-07-09T04:46:55;95254.81;;;18.49;65.26
56831;BME280;42713;42.676;23.352;2023-07-09T04:49:21;95254.28;;;18.47;65.44
56831;BME280;42713;42.676;23.352;2023-07-09T04:51:47;95250.56;;;18.48;65.31
56831;BME280;42713;42.676;23.352;2023-07-09T04:54:12;95256.94;;;18.47;65.49
56831;BME280;42713;42.676;23.352;2023-07-09T04:56:41;95254.59;;;18.45;65.28
56831;BME280;42713;42.676;23.352;2023-07-09T04:59:09;95246.91;;;18.44;64.54
56831;BME280;42713;42.676;23.352;2023-07-09T05:01:35;95251.94;;;18.45;64.11
56831;BME280;42713;42.676;23.352;2023-07-09T05:04:00;95258.53;;;18.48;63.34
56831;BME280;42713;42.676;23.352;2023-07-09T05:06:25;95256.13;;;18.51;63.68
56831;BME280;42713;42.676;23.352;2023-07-09T05:08:51;95257.69;;;18.52;64.09
56831;BME280;42713;42.676;23.352;2023-07-09T05:11:16;95260.53;;;18.61;62.02
56831;BME280;42713;42.676;23.352;2023-07-09T05:13:42;95262.41;;;18.61;61.19
56831;BME280;42713;42.676;23.352;2023-07-09T05:16:07;95258.94;;;18.65;61.90
56831;BME280;42713;42.676;23.352;2023-07-09T05:18:32;95259.41;;;18.67;62.36
56831;BME280;42713;42.676;23.352;2023-07-09T05:20:58;95260.53;;;18.61;62.21
56831;BME280;42713;42.676;23.352;2023-07-09T05:23:24;95264.41;;;18.74;61.55
56831;BME280;42713;42.676;23.352;2023-07-09T05:25:58;95264.69;;;18.73;61.31
56831;BME280;42713;42.676;23.352;2023-07-09T05:28:24;95266.19;;;18.84;61.63
56831;BME280;42713;42.676;23.352;2023-07-09T05:30:50;95269.19;;;19.02;61.07
56831;BME280;42713;42.676;23.352;2023-07-09T05:33:17;95265.19;;;19.04;60.06
56831;BME280;42713;42.676;23.352;2023-07-09T05:35:43;95262.41;;;19.15;60.02
56831;BME280;42713;42.676;23.352;2023-07-09T05:38:09;95274.63;;;19.16;59.44
56831;BME280;42713;42.676;23.352;2023-07-09T05:40:34;95266.31;;;19.22;57.61
56831;BME280;42713;42.676;23.352;2023-07-09T05:43:00;95258.34;;;19.22;57.70
56831;BME280;42713;42.676;23.352;2023-07-09T05:45:25;95256.59;;;19.12;57.56
56831;BME280;42713;42.676;23.352;2023-07-09T05:47:51;95290.56;;;19.16;58.82
56831;BME280;42713;42.676;23.352;2023-07-09T05:50:17;95263.78;;;19.12;56.52
56831;BME280;42713;42.676;23.352;2023-07-09T05:52:42;95272.00;;;19.10;56.88
56831;BME280;42713;42.676;23.352;2023-07-09T05:55:08;95264.50;;;19.18;57.64
56831;BME280;42713;42.676;23.352;2023-07-09T05:57:33;95259.09;;;19.28;58.36
56831;BME280;42713;42.676;23.352;2023-07-09T05:59:58;95268.28;;;19.36;58.43
56831;BME280;42713;42.676;23.352;2023-07-09T06:02:24;95264.50;;;19.42;57.23
56831;BME280;42713;42.676;23.352;2023-07-09T06:04:49;95256.31;;;19.38;56.64
56831;BME280;42713;42.676;23.352;2023-07-09T06:07:15;95260.09;;;19.32;57.32
56831;BME280;42713;42.676;23.352;2023-07-09T06:09:41;95270.44;;;19.34;57.27
56831;BME280;42713;42.676;23.352;2023-07-09T06:12:07;95263.81;;;19.31;57.33
56831;BME280;42713;42.676;23.352;2023-07-09T06:14:34;95256.56;;;19.37;57.99
56831;BME280;42713;42.676;23.352;2023-07-09T06:17:00;95253.06;;;19.41;57.87
56831;BME280;42713;42.676;23.352;2023-07-09T06:19:26;95242.09;;;19.48;57.85
56831;BME280;42713;42.676;23.352;2023-07-09T06:21:52;95263.28;;;19.53;56.88
56831;BME280;42713;42.676;23.352;2023-07-09T06:24:17;95255.06;;;19.50;57.40
56831;BME280;42713;42.676;23.352;2023-07-09T06:26:43;95256.97;;;19.49;58.80
56831;BME280;42713;42.676;23.352;2023-07-09T06:29:08;95249.38;;;19.62;58.86
56831;BME280;42713;42.676;23.352;2023-07-09T06:31:34;95256.19;;;19.68;58.93
56831;BME280;42713;42.676;23.352;2023-07-09T06:34:01;95244.69;;;19.72;59.18
56831;BME280;42713;42.676;23.352;2023-07-09T06:36:26;95257.06;;;19.82;57.34
56831;BME280;42713;42.676;23.352;2023-07-09T06:38:52;95255.75;;;19.80;56.67
56831;BME280;42713;42.676;23.352;2023-07-09T06:41:17;95247.28;;;19.78;57.66
56831;BME280;42713;42.676;23.352;2023-07-09T06:43:43;95244.03;;;19.81;56.33
56831;BME280;42713;42.676;23.352;2023-07-09T06:46:12;95245.28;;;19.88;56.29
56831;BME280;42713;42.676;23.352;2023-07-09T06:48:37;95245.50;;;19.92;56.88
56831;BME280;42713;42.676;23.352;2023-07-09T06:51:03;95250.16;;;20.00;56.99
56831;BME280;42713;42.676;23.352;2023-07-09T06:53:29;95251.09;;;20.10;55.55
56831;BME280;42713;42.676;23.352;2023-07-09T06:55:55;95248.63;;;20.13;55.63
56831;BME280;42713;42.676;23.352;2023-07-09T06:58:25;95252.25;;;20.23;55.40
56831;BME280;42713;42.676;23.352;2023-07-09T07:00:53;95255.16;;;20.21;54.78
56831;BME280;42713;42.676;23.352;2023-07-09T07:03:20;95256.75;;;20.22;54.47
56831;BME280;42713;42.676;23.352;2023-07-09T07:05:47;95246.53;;;20.29;55.10
56831;BME280;42713;42.676;23.352;2023-07-09T07:08:20;95256.78;;;20.36;54.50
56831;BME280;42713;42.676;23.352;2023-07-09T07:10:48;95242.13;;;20.38;54.19
56831;BME280;42713;42.676;23.352;2023-07-09T07:13:14;95246.28;;;20.45;56.02
56831;BME280;42713;42.676;23.352;2023-07-09T07:15:40;95247.66;;;20.42;52.99
56831;BME280;42713;42.676;23.352;2023-07-09T07:18:06;95246.88;;;20.42;53.18
56831;BME280;42713;42.676;23.352;2023-07-09T07:20:39;95239.69;;;20.42;53.34
56831;BME280;42713;42.676;23.352;2023-07-09T07:23:05;95233.50;;;20.47;53.92
56831;BME280;42713;42.676;23.352;2023-07-09T07:25:32;95241.88;;;20.54;51.53
56831;BME280;42713;42.676;23.352;2023-07-09T07:27:57;95234.66;;;20.55;51.21
56831;BME280;42713;42.676;23.352;2023-07-09T07:30:23;95228.97;;;20.61;52.74
56831;BME280;42713;42.676;23.352;2023-07-09T07:32:49;95247.72;;;20.70;51.47
56831;BME280;42713;42.676;23.352;2023-07-09T07:35:16;95230.09;;;20.74;50.88
56831;BME280;42713;42.676;23.352;2023-07-09T07:37:42;95223.41;;;20.77;50.30
56831;BME280;42713;42.676;23.352;2023-07-09T07:40:09;95236.50;;;20.87;50.98
56831;BME280;42713;42.676;23.352;2023-07-09T07:42:35;95221.34;;;20.88;51.21
56831;BME280;42713;42.676;23.352;2023-07-09T07:45:01;95221.13;;;20.84;50.63
56831;BME280;42713;42.676;23.352;2023-07-09T07:47:27;95226.66;;;20.88;51.73
56831;BME280;42713;42.676;23.352;2023-07-09T07:49:53;95228.94;;;20.94;50.13
56831;BME280;42713;42.676;23.352;2023-07-09T07:52:19;95226.28;;;20.94;49.66
56831;BME280;42713;42.676;23.352;2023-07-09T07:54:44;95221.63;;;21.00;51.11
56831;BME280;42713;42.676;23.352;2023-07-09T07:57:10;95223.41;;;21.05;51.53
56831;BME280;42713;42.676;23.352;2023-07-09T07:59:37;95238.38;;;21.14;52.52
56831;BME280;42713;42.676;23.352;2023-07-09T08:02:03;95225.56;;;21.17;49.34
56831;BME280;42713;42.676;23.352;2023-07-09T08:04:29;95214.72;;;21.13;50.60
56831;BME280;42713;42.676;23.352;2023-07-09T08:06:55;95224.97;;;21.20;51.52
56831;BME280;42713;42.676;23.352;2023-07-09T08:09:20;95217.38;;;21.27;50.08
56831;BME280;42713;42.676;23.352;2023-07-09T08:11:46;95220.91;;;21.36;50.86
56831;BME280;42713;42.676;23.352;2023-07-09T08:14:12;95217.25;;;21.32;49.26
56831;BME280;42713;42.676;23.352;2023-07-09T08:16:38;95228.41;;;21.34;49.26
56831;BME280;42713;42.676;23.352;2023-07-09T08:19:04;95211.66;;;21.34;49.15
56831;BME280;42713;42.676;23.352;2023-07-09T08:21:30;95217.16;;;21.37;49.73
56831;BME280;42713;42.676;23.352;2023-07-09T08:23:56;95212.78;;;21.41;49.28
56831;BME280;42713;42.676;23.352;2023-07-09T08:26:21;95209.63;;;21.53;49.65
56831;BME280;42713;42.676;23.352;2023-07-09T08:28:47;95200.56;;;21.54;49.73
56831;BME280;42713;42.676;23.352;2023-07-09T08:31:13;95199.16;;;21.57;50.27
56831;BME280;42713;42.676;23.352;2023-07-09T08:33:38;95198.28;;;21.61;49.43
56831;BME280;42713;42.676;23.352;2023-07-09T08:36:05;95203.66;;;21.70;50.12
56831;BME280;42713;42.676;23.352;2023-07-09T08:38:30;95197.75;;;21.73;49.83
56831;BME280;42713;42.676;23.352;2023-07-09T08:41:02;95197.66;;;21.79;51.79
56831;BME280;42713;42.676;23.352;2023-07-09T08:43:35;95204.00;;;21.91;51.53
56831;BME280;42713;42.676;23.352;2023-07-09T08:48:44;95202.53;;;22.08;50.72
56831;BME280;42713;42.676;23.352;2023-07-09T08:51:17;95194.72;;;22.12;49.97
56831;BME280;42713;42.676;23.352;2023-07-09T08:53:55;95196.06;;;22.23;51.19
56831;BME280;42713;42.676;23.352;2023-07-09T08:56:22;95214.00;;;22.31;50.78
56831;BME280;42713;42.676;23.352;2023-07-09T08:58:49;95211.63;;;22.30;50.26
56831;BME280;42713;42.676;23.352;2023-07-09T09:01:22;95194.22;;;22.32;48.82
56831;BME280;42713;42.676;23.352;2023-07-09T09:03:51;95204.88;;;22.32;50.03
56831;BME280;42713;42.676;23.352;2023-07-09T09:06:21;95211.81;;;22.33;50.72
56831;BME280;42713;42.676;23.352;2023-07-09T09:12:16;95207.56;;;22.32;50.08
56831;BME280;42713;42.676;23.352;2023-07-09T09:14:56;95196.41;;;22.30;49.50
56831;BME280;42713;42.676;23.352;2023-07-09T09:17:23;95193.63;;;22.35;49.44
56831;BME280;42713;42.676;23.352;2023-07-09T09:20:02;95208.59;;;22.45;49.58
56831;BME280;42713;42.676;23.352;2023-07-09T09:25:27;95200.03;;;22.57;50.55
56831;BME280;42713;42.676;23.352;2023-07-09T09:27:53;95200.34;;;22.56;48.39
56831;BME280;42713;42.676;23.352;2023-07-09T09:30:21;95200.03;;;22.57;48.69
56831;BME280;42713;42.676;23.352;2023-07-09T09:32:58;95194.25;;;22.64;48.54
56831;BME280;42713;42.676;23.352;2023-07-09T09:35:35;95196.63;;;22.65;48.80
56831;BME280;42713;42.676;23.352;2023-07-09T09:38:08;95195.66;;;22.61;48.57
56831;BME280;42713;42.676;23.352;2023-07-09T09:40:35;95191.28;;;22.65;48.66
56831;BME280;42713;42.676;23.352;2023-07-09T09:43:16;95196.97;;;22.73;48.46
56831;BME280;42713;42.676;23.352;2023-07-09T09:45:45;95188.78;;;22.78;49.01
56831;BME280;42713;42.676;23.352;2023-07-09T09:48:17;95185.69;;;22.84;47.94
56831;BME280;42713;42.676;23.352;2023-07-09T09:50:45;95177.50;;;22.81;48.16
56831;BME280;42713;42.676;23.352;2023-07-09T09:53:18;95182.72;;;22.95;47.71
56831;BME280;42713;42.676;23.352;2023-07-09T09:55:45;95188.06;;;22.95;47.56
56831;BME280;42713;42.676;23.352;2023-07-09T09:58:14;95184.31;;;22.96;47.39
56831;BME280;42713;42.676;23.352;2023-07-09T10:00:46;95186.22;;;22.95;47.30
56831;BME280;42713;42.676;23.352;2023-07-09T10:03:13;95186.50;;;22.94;46.44
56831;BME280;42713;42.676;23.352;2023-07-09T10:05:43;95171.75;;;22.96;47.56
56831;BME280;42713;42.676;23.352;2023-07-09T10:08:34;95184.19;;;23.10;48.18
56831;BME280;42713;42.676;23.352;2023-07-09T10:11:16;95173.97;;;23.12;46.82
56831;BME280;42713;42.676;23.352;2023-07-09T10:13:44;95175.41;;;23.18;47.15
56831;BME280;42713;42.676;23.352;2023-07-09T10:16:24;95172.94;;;23.30;47.23
56831;BME280;42713;42.676;23.352;2023-07-09T10:19:03;95179.69;;;23.37;45.54
56831;BME280;42713;42.676;23.352;2023-07-09T10:21:43;95166.97;;;23.42;45.86
56831;BME280;42713;42.676;23.352;2023-07-09T10:27:21;95170.28;;;23.39;44.04
56831;BME280;42713;42.676;23.352;2023-07-09T10:30:35;95164.47;;;23.37;44.07
56831;BME280;42713;42.676;23.352;2023-07-09T10:35:29;95161.63;;;23.51;46.32
56831;BME280;42713;42.676;23.352;2023-07-09T10:43:00;95160.72;;;23.65;44.36
56831;BME280;42713;42.676;23.352;2023-07-09T10:45:47;95151.41;;;23.71;44.17
56831;BME280;42713;42.676;23.352;2023-07-09T10:48:24;95165.88;;;23.70;43.70
56831;BME280;42713;42.676;23.352;2023-07-09T10:50:55;95147.47;;;23.59;43.08
56831;BME280;42713;42.676;23.352;2023-07-09T10:53:38;95161.00;;;23.63;43.20
56831;BME280;42713;42.676;23.352;2023-07-09T10:56:16;95168.88;;;23.68;43.19
56831;BME280;42713;42.676;23.352;2023-07-09T11:01:38;95149.38;;;23.76;43.20
56831;BME280;42713;42.676;23.352;2023-07-09T11:04:24;95152.97;;;23.89;41.50
56831;BME280;42713;42.676;23.352;2023-07-09T11:06:53;95156.59;;;23.85;40.98
56831;BME280;42713;42.676;23.352;2023-07-09T11:09:41;95151.41;;;23.88;41.86
56831;BME280;42713;42.676;23.352;2023-07-09T11:12:15;95158.50;;;24.02;41.51
56831;BME280;42713;42.676;23.352;2023-07-09T11:14:56;95161.47;;;24.18;40.17
56831;BME280;42713;42.676;23.352;2023-07-09T11:17:26;95140.47;;;24.37;40.21
56831;BME280;42713;42.676;23.352;2023-07-09T11:20:00;95147.81;;;24.49;39.90
56831;BME280;42713;42.676;23.352;2023-07-09T11:22:40;95148.38;;;24.73;38.84
56831;BME280;42713;42.676;23.352;2023-07-09T11:25:11;95141.81;;;24.91;38.19
56831;BME280;42713;42.676;23.352;2023-07-09T11:27:52;95137.41;;;25.16;38.65
56831;BME280;42713;42.676;23.352;2023-07-09T11:30:23;95151.31;;;25.40;37.48
56831;BME280;42713;42.676;23.352;2023-07-09T11:32:56;95143.72;;;25.63;38.29
56831;BME280;42713;42.676;23.352;2023-07-09T11:35:24;95136.38;;;25.72;37.27
56831;BME280;42713;42.676;23.352;2023-07-09T11:37:51;95128.19;;;25.90;37.06
56831;BME280;42713;42.676;23.352;2023-07-09T11:40:19;95134.69;;;26.01;36.54
56831;BME280;42713;42.676;23.352;2023-07-09T11:45:16;95121.56;;;26.21;37.65
56831;BME280;42713;42.676;23.352;2023-07-09T11:47:45;95133.72;;;26.39;37.61
56831;BME280;42713;42.676;23.352;2023-07-09T11:50:35;95129.84;;;26.16;36.59
56831;BME280;42713;42.676;23.352;2023-07-09T11:55:41;95119.06;;;26.03;38.14
56831;BME280;42713;42.676;23.352;2023-07-09T11:58:11;95131.34;;;26.04;39.04
56831;BME280;42713;42.676;23.352;2023-07-09T12:00:39;95119.72;;;26.00;38.40
56831;BME280;42713;42.676;23.352;2023-07-09T12:03:09;95113.41;;;26.17;37.44
56831;BME280;42713;42.676;23.352;2023-07-09T12:05:37;95117.34;;;26.20;37.80
56831;BME280;42713;42.676;23.352;2023-07-09T12:08:10;95123.38;;;26.17;39.42
56831;BME280;42713;42.676;23.352;2023-07-09T12:10:43;95127.63;;;26.18;37.25
56831;BME280;42713;42.676;23.352;2023-07-09T12:13:11;95128.78;;;26.08;38.13
56831;BME280;42713;42.676;23.352;2023-07-09T12:15:38;95107.84;;;26.01;37.27
56831;BME280;42713;42.676;23.352;2023-07-09T12:18:11;95115.59;;;26.03;38.31
56831;BME280;42713;42.676;23.352;2023-07-09T12:20:37;95109.72;;;26.09;38.15
56831;BME280;42713;42.676;23.352;2023-07-09T12:25:49;95115.22;;;25.92;38.30
56831;BME280;42713;42.676;23.352;2023-07-09T12:28:15;95102.06;;;25.99;39.31
56831;BME280;42713;42.676;23.352;2023-07-09T12:30:48;95105.91;;;26.10;38.71
56831;BME280;42713;42.676;23.352;2023-07-09T12:33:22;95109.50;;;26.15;38.24
56831;BME280;42713;42.676;23.352;2023-07-09T12:35:56;95110.72;;;26.17;37.34
56831;BME280;42713;42.676;23.352;2023-07-09T12:38:24;95099.34;;;26.33;37.98
56831;BME280;42713;42.676;23.352;2023-07-09T12:40:51;95108.75;;;26.51;38.34
56831;BME280;42713;42.676;23.352;2023-07-09T12:43:28;95080.56;;;26.70;38.14
56831;BME280;42713;42.676;23.352;2023-07-09T12:45:56;95096.91;;;26.90;36.97
56831;BME280;42713;42.676;23.352;2023-07-09T12:48:24;95078.44;;;26.88;36.07
56831;BME280;42713;42.676;23.352;2023-07-09T12:50:51;95102.94;;;26.99;36.13
56831;BME280;42713;42.676;23.352;2023-07-09T12:53:20;95090.75;;;26.89;36.53
56831;BME280;42713;42.676;23.352;2023-07-09T12:55:55;95096.44;;;27.00;37.32
56831;BME280;42713;42.676;23.352;2023-07-09T12:58:23;95097.22;;;27.00;36.12
56831;BME280;42713;42.676;23.352;2023-07-09T13:00:57;95082.09;;;27.08;36.46
56831;BME280;42713;42.676;23.352;2023-07-09T13:03:28;95077.28;;;27.01;36.73
56831;BME280;42713;42.676;23.352;2023-07-09T13:06:05;95084.44;;;27.10;36.74
56831;BME280;42713;42.676;23.352;2023-07-09T13:08:42;95083.72;;;27.25;36.20
56831;BME280;42713;42.676;23.352;2023-07-09T13:11:16;95079.34;;;27.33;36.20
56831;BME280;42713;42.676;23.352;2023-07-09T13:13:56;95080.25;;;27.65;36.89
56831;BME280;42713;42.676;23.352;2023-07-09T13:16:22;95087.66;;;27.85;36.45
56831;BME280;42713;42.676;23.352;2023-07-09T13:18:48;95076.44;;;28.11;36.19
56831;BME280;42713;42.676;23.352;2023-07-09T13:21:17;95098.88;;;28.31;36.30
56831;BME280;42713;42.676;23.352;2023-07-09T13:23:44;95072.72;;;28.48;33.95
56831;BME280;42713;42.676;23.352;2023-07-09T13:26:09;95081.31;;;28.53;34.82
56831;BME280;42713;42.676;23.352;2023-07-09T13:28:35;95091.91;;;28.78;34.63
56831;BME280;42713;42.676;23.352;2023-07-09T13:31:09;95088.78;;;28.76;32.83
56831;BME280;42713;42.676;23.352;2023-07-09T13:33:35;95076.78;;;28.57;34.05
56831;BME280;42713;42.676;23.352;2023-07-09T13:36:02;95085.59;;;28.38;34.56